Time;durP1;ratioP1;P1;durP2;ratioP2;P2;SDS_P1;SDS_P2;PMS_P1;PMS_P2;Temp;Humidity;BMP_temperature;BMP_pressure;BME280_temperature;BME280_humidity;BME280_pressure;Samples;Min_cycle;Max_cycle;Signal;HPM_P1;HPM_P2
2022/09/22 00:00:16;;;;;;;5.63;1.98;;;10.10;96.60;;;;;;5026002;28;20551;-34
2022/09/22 00:02:42;;;;;;;3.83;1.60;;;10.10;96.70;;;;;;5031958;28;20522;-34
2022/09/22 00:05:08;;;;;;;4.53;2.08;;;10.10;96.70;;;;;;5037509;28;20060;-36
2022/09/22 00:07:33;;;;;;;5.07;1.85;;;10.10;96.90;;;;;;5032870;28;20055;-35
2022/09/22 00:09:59;;;;;;;5.78;1.70;;;10.00;96.80;;;;;;5039747;28;20087;-35
2022/09/22 00:12:25;;;;;;;5.70;2.10;;;10.00;96.80;;;;;;5026765;28;20052;-35
2022/09/22 00:14:52;;;;;;;5.60;1.60;;;10.00;96.80;;;;;;5033343;28;20079;-34
2022/09/22 00:17:18;;;;;;;3.50;1.92;;;10.00;96.90;;;;;;5040081;28;20435;-35
2022/09/22 00:19:43;;;;;;;8.98;2.03;;;10.00;96.90;;;;;;5038289;28;20049;-35
2022/09/22 00:22:09;;;;;;;3.88;1.45;;;9.90;97.00;;;;;;5042794;28;20577;-36
2022/09/22 00:24:35;;;;;;;4.53;1.50;;;9.90;97.00;;;;;;5035142;28;20052;-35
2022/09/22 00:27:00;;;;;;;3.55;1.55;;;9.90;97.10;;;;;;5037059;28;20037;-34
2022/09/22 00:29:27;;;;;;;6.43;1.65;;;9.80;97.00;;;;;;5036474;28;20040;-35
2022/09/22 00:31:54;;;;;;;3.22;1.30;;;9.80;97.10;;;;;;5040801;28;20085;-35
2022/09/22 00:34:25;;;;;;;3.85;1.48;;;9.80;97.00;;;;;;5033649;28;20029;-35
2022/09/22 00:36:51;;;;;;;7.00;1.73;;;9.80;97.10;;;;;;5036781;28;20062;-35
2022/09/22 00:39:17;;;;;;;4.68;1.40;;;9.70;97.10;;;;;;5020071;28;20045;-35
2022/09/22 00:41:47;;;;;;;3.83;1.30;;;9.70;97.20;;;;;;5038030;28;20045;-36
2022/09/22 00:44:25;;;;;;;4.70;1.40;;;9.70;97.30;;;;;;5039527;28;20514;-36
2022/09/22 00:47:18;;;;;;;4.40;1.85;;;9.70;97.30;;;;;;5038569;28;20076;-36
2022/09/22 00:50:05;;;;;;;2.85;1.30;;;9.60;97.30;;;;;;5027624;28;20056;-36
2022/09/22 00:52:57;;;;;;;6.43;1.75;;;9.60;97.30;;;;;;5033376;28;20041;-37
2022/09/22 00:55:35;;;;;;;6.28;2.03;;;9.60;97.30;;;;;;5035133;28;20037;-36
2022/09/22 00:58:04;;;;;;;4.32;1.38;;;9.50;97.30;;;;;;5038516;28;20083;-36
2022/09/22 01:00:30;;;;;;;3.92;1.30;;;9.50;97.30;;;;;;5032349;28;20044;-37
2022/09/22 01:02:58;;;;;;;3.05;1.35;;;9.50;97.30;;;;;;5018829;28;20049;-37
2022/09/22 01:05:26;;;;;;;3.58;1.60;;;9.40;97.40;;;;;;5041084;28;20024;-36
2022/09/22 01:07:54;;;;;;;3.80;1.20;;;9.40;97.60;;;;;;5032787;28;20036;-36
2022/09/22 01:10:19;;;;;;;3.65;1.10;;;9.40;97.70;;;;;;5035379;28;20133;-37
2022/09/22 01:13:12;;;;;;;4.80;1.55;;;9.30;97.70;;;;;;5039757;28;20136;-36
2022/09/22 01:15:47;;;;;;;2.88;1.20;;;9.30;97.80;;;;;;5018654;28;20140;-38
2022/09/22 01:18:41;;;;;;;2.35;0.98;;;9.20;97.90;;;;;;5035786;28;20053;-38
2022/09/22 01:21:33;;;;;;;2.88;1.17;;;9.20;98.00;;;;;;5035597;28;20494;-36
2022/09/22 01:24:22;;;;;;;1.98;1.00;;;9.10;98.00;;;;;;5034565;28;20249;-37
2022/09/22 01:27:09;;;;;;;2.17;0.98;;;9.10;98.20;;;;;;5039090;28;20049;-37
2022/09/22 01:29:50;;;;;;;1.48;0.88;;;9.10;98.10;;;;;;5041547;28;20463;-38
2022/09/22 01:32:26;;;;;;;3.83;0.90;;;9.00;98.00;;;;;;5042592;28;20041;-38
2022/09/22 01:35:22;;;;;;;2.20;0.63;;;9.00;98.20;;;;;;5036031;28;20037;-38
2022/09/22 01:37:54;;;;;;;2.10;0.90;;;9.00;98.30;;;;;;5032148;28;20029;-37
2022/09/22 01:40:31;;;;;;;3.30;0.85;;;8.90;98.20;;;;;;5031780;28;20067;-37
2022/09/22 01:43:20;;;;;;;2.65;0.93;;;8.90;98.30;;;;;;5040048;28;20041;-35
2022/09/22 01:45:47;;;;;;;1.95;0.90;;;8.90;98.40;;;;;;5040680;28;20072;-36
2022/09/22 01:48:24;;;;;;;2.83;1.38;;;8.80;98.40;;;;;;5032099;28;20049;-36
2022/09/22 01:50:56;;;;;;;3.63;1.20;;;8.80;98.50;;;;;;5037240;28;20461;-36
2022/09/22 01:53:27;;;;;;;3.85;1.30;;;8.80;98.60;;;;;;5035821;28;20037;-37
2022/09/22 01:55:57;;;;;;;3.75;1.30;;;8.80;98.70;;;;;;5035821;28;20521;-38
2022/09/22 01:58:38;;;;;;;5.97;1.30;;;8.80;98.70;;;;;;5040911;28;20032;-37
2022/09/22 02:01:11;;;;;;;5.78;1.67;;;8.70;98.90;;;;;;5037397;28;20032;-38
2022/09/22 02:03:46;;;;;;;2.63;1.30;;;8.70;98.80;;;;;;5018450;28;20045;-37
2022/09/22 02:06:22;;;;;;;2.75;1.55;;;8.70;98.90;;;;;;5034879;28;20112;-38
2022/09/22 02:08:58;;;;;;;5.10;1.40;;;8.70;98.90;;;;;;5037070;28;20060;-38
2022/09/22 02:11:24;;;;;;;2.25;1.20;;;8.70;99.00;;;;;;5033108;28;20495;-38
2022/09/22 02:13:50;;;;;;;3.90;1.20;;;8.60;98.90;;;;;;5034559;28;20039;-37
2022/09/22 02:16:20;;;;;;;4.13;1.40;;;8.60;98.90;;;;;;5035784;28;20102;-36
2022/09/22 02:18:52;;;;;;;3.22;1.40;;;8.60;99.00;;;;;;5032176;28;20045;-37
2022/09/22 02:21:19;;;;;;;3.47;1.13;;;8.50;99.00;;;;;;5036325;28;20504;-37
2022/09/22 02:23:47;;;;;;;3.42;1.45;;;8.50;99.10;;;;;;5036386;28;20064;-37
2022/09/22 02:26:22;;;;;;;4.03;1.35;;;8.50;99.10;;;;;;5036358;28;20044;-38
2022/09/22 02:28:54;;;;;;;3.47;1.70;;;8.50;99.20;;;;;;5037531;28;20445;-37
2022/09/22 02:31:27;;;;;;;2.55;1.00;;;8.40;99.10;;;;;;5033924;28;20033;-34
2022/09/22 02:33:54;;;;;;;2.97;1.45;;;8.40;99.30;;;;;;5036332;28;20168;-35
2022/09/22 02:36:54;;;;;;;4.20;1.67;;;8.40;99.30;;;;;;5027550;28;20038;-35
2022/09/22 02:39:33;;;;;;;5.10;1.42;;;8.40;99.30;;;;;;5034752;28;20056;-35
2022/09/22 02:42:16;;;;;;;3.42;1.35;;;8.30;99.30;;;;;;5038490;28;20049;-34
2022/09/22 02:44:53;;;;;;;4.53;1.60;;;8.30;99.40;;;;;;5038327;28;20076;-35
2022/09/22 02:47:27;;;;;;;4.10;1.42;;;8.30;99.40;;;;;;5033766;28;20037;-34
2022/09/22 02:49:54;;;;;;;1.77;1.20;;;8.30;99.50;;;;;;5029916;28;20042;-34
2022/09/22 02:52:23;;;;;;;3.20;1.13;;;8.30;99.50;;;;;;5032579;28;20038;-35
2022/09/22 02:54:50;;;;;;;3.60;1.40;;;8.20;99.60;;;;;;5034011;28;20112;-36
2022/09/22 02:57:16;;;;;;;3.50;1.35;;;8.20;99.60;;;;;;5029370;28;20506;-34
2022/09/22 02:59:41;;;;;;;5.68;1.40;;;8.20;99.70;;;;;;5032326;28;20111;-34
2022/09/22 03:02:07;;;;;;;3.60;1.67;;;8.20;99.90;;;;;;5033494;28;20087;-35
2022/09/22 03:04:33;;;;;;;3.53;1.60;;;8.20;99.90;;;;;;5029514;28;20430;-35
2022/09/22 03:06:58;;;;;;;4.63;1.65;;;8.10;99.90;;;;;;5015053;28;20041;-43
2022/09/22 03:09:24;;;;;;;4.18;1.92;;;8.10;99.90;;;;;;5035690;28;20422;-37
2022/09/22 03:11:50;;;;;;;3.17;1.58;;;8.10;99.90;;;;;;5036019;28;20037;-37
2022/09/22 03:14:16;;;;;;;3.60;1.95;;;8.10;99.90;;;;;;5031126;28;20120;-36
2022/09/22 03:16:41;;;;;;;4.82;1.42;;;8.10;99.90;;;;;;5038589;28;20131;-36
2022/09/22 03:19:07;;;;;;;4.20;1.95;;;8.10;99.90;;;;;;5036566;28;20084;-34
2022/09/22 03:21:32;;;;;;;8.23;1.80;;;8.10;99.90;;;;;;5030827;28;20037;-35
2022/09/22 03:23:58;;;;;;;4.65;1.88;;;8.10;99.90;;;;;;5031621;28;20065;-37
2022/09/22 03:26:24;;;;;;;4.40;2.10;;;8.10;99.90;;;;;;5035342;28;20124;-35
2022/09/22 03:28:50;;;;;;;6.10;1.80;;;8.10;99.90;;;;;;5031699;28;20053;-37
2022/09/22 03:31:15;;;;;;;3.60;1.90;;;8.10;99.90;;;;;;5030360;28;20115;-37
2022/09/22 03:33:41;;;;;;;3.20;1.52;;;8.00;99.90;;;;;;5030695;28;20041;-38
2022/09/22 03:36:07;;;;;;;4.00;2.13;;;8.00;99.90;;;;;;5032161;28;20038;-38
2022/09/22 03:38:32;;;;;;;8.25;2.50;;;8.00;99.90;;;;;;5030791;28;20048;-38
2022/09/22 03:41:00;;;;;;;4.28;2.10;;;7.90;99.90;;;;;;5030133;28;20068;-36
2022/09/22 03:43:25;;;;;;;5.75;1.80;;;7.90;99.90;;;;;;5030231;28;20048;-35
2022/09/22 03:45:59;;;;;;;5.28;2.00;;;7.90;99.90;;;;;;5028349;28;20041;-37
2022/09/22 03:48:26;;;;;;;4.00;2.15;;;7.90;99.90;;;;;;5046260;28;20049;-38
2022/09/22 03:50:52;;;;;;;4.93;2.03;;;7.90;99.90;;;;;;5033731;28;20529;-37
2022/09/22 03:53:18;;;;;;;3.85;1.95;;;7.90;99.90;;;;;;5030565;28;20037;-37
2022/09/22 03:55:43;;;;;;;7.55;2.25;;;7.90;99.90;;;;;;5033783;28;20029;-37
2022/09/22 03:58:09;;;;;;;4.35;2.10;;;7.80;99.90;;;;;;5035108;28;20040;-37
2022/09/22 04:00:35;;;;;;;5.07;1.70;;;7.80;99.90;;;;;;5030543;28;20470;-36
2022/09/22 04:03:00;;;;;;;2.88;1.80;;;7.80;99.90;;;;;;5033279;28;20423;-37
2022/09/22 04:05:26;;;;;;;5.35;2.08;;;7.80;99.90;;;;;;5035669;28;20037;-37
2022/09/22 04:07:52;;;;;;;8.13;1.98;;;7.80;99.90;;;;;;5030844;28;20168;-38
2022/09/22 04:10:19;;;;;;;5.15;2.20;;;7.80;99.90;;;;;;5035763;28;20040;-38
2022/09/22 04:12:45;;;;;;;4.43;2.08;;;7.80;99.90;;;;;;5032332;28;20045;-36
2022/09/22 04:15:11;;;;;;;4.88;2.08;;;7.80;99.90;;;;;;5031087;28;20033;-37
2022/09/22 04:17:36;;;;;;;4.78;2.22;;;7.70;99.90;;;;;;5028392;28;20033;-37
2022/09/22 04:20:07;;;;;;;6.75;2.47;;;7.70;99.90;;;;;;4984308;28;20049;-36
2022/09/22 04:22:33;;;;;;;3.60;2.20;;;7.70;99.90;;;;;;5035824;28;20061;-36
2022/09/22 04:24:59;;;;;;;5.45;2.50;;;7.70;99.90;;;;;;5030490;28;20517;-36
2022/09/22 04:27:25;;;;;;;6.82;2.53;;;7.70;99.90;;;;;;5033861;28;20045;-38
2022/09/22 04:29:51;;;;;;;4.28;1.95;;;7.60;99.90;;;;;;5031820;28;20130;-36
2022/09/22 04:32:17;;;;;;;4.63;2.50;;;7.60;99.90;;;;;;5030202;28;20621;-37
2022/09/22 04:34:43;;;;;;;4.53;2.17;;;7.60;99.90;;;;;;5032663;28;20124;-39
2022/09/22 04:37:10;;;;;;;4.80;2.63;;;7.60;99.90;;;;;;5033813;28;20033;-38
2022/09/22 04:39:36;;;;;;;6.28;3.22;;;7.60;99.90;;;;;;5035248;28;20052;-36
2022/09/22 04:42:02;;;;;;;5.65;2.50;;;7.50;99.90;;;;;;5030870;28;20049;-36
2022/09/22 04:44:28;;;;;;;4.90;2.47;;;7.50;99.90;;;;;;5026475;28;20080;-38
2022/09/22 04:46:55;;;;;;;5.03;2.50;;;7.50;99.90;;;;;;5032799;28;21600;-37
2022/09/22 04:49:22;;;;;;;4.82;2.45;;;7.50;99.90;;;;;;5032080;28;20132;-36
2022/09/22 04:51:47;;;;;;;4.63;2.97;;;7.50;99.90;;;;;;5030365;28;20132;-36
2022/09/22 04:54:13;;;;;;;5.25;2.72;;;7.40;99.90;;;;;;5034477;28;20143;-37
2022/09/22 04:56:40;;;;;;;5.28;3.15;;;7.40;99.90;;;;;;5039467;28;20125;-36
2022/09/22 04:59:06;;;;;;;5.00;2.47;;;7.40;99.90;;;;;;5033310;28;20577;-38
2022/09/22 05:01:32;;;;;;;5.63;2.72;;;7.40;99.90;;;;;;5037867;28;20037;-37
2022/09/22 05:03:58;;;;;;;5.40;2.90;;;7.40;99.90;;;;;;5039925;28;20133;-36
2022/09/22 05:06:24;;;;;;;5.65;2.75;;;7.40;99.90;;;;;;5034335;28;20033;-37
2022/09/22 05:08:49;;;;;;;8.05;3.28;;;7.30;99.90;;;;;;5033456;28;20107;-37
2022/09/22 05:11:15;;;;;;;5.50;2.83;;;7.30;99.90;;;;;;5034443;28;20033;-36
2022/09/22 05:13:41;;;;;;;5.25;2.65;;;7.30;99.90;;;;;;5037289;28;20091;-37
2022/09/22 05:16:07;;;;;;;6.43;2.75;;;7.30;99.90;;;;;;5034514;28;20037;-40
2022/09/22 05:18:33;;;;;;;5.00;2.58;;;7.30;99.90;;;;;;5040561;28;20060;-37
2022/09/22 05:21:00;;;;;;;5.20;2.90;;;7.30;99.90;;;;;;5027970;28;20048;-36
2022/09/22 05:23:26;;;;;;;4.80;2.85;;;7.30;99.90;;;;;;5020150;28;20084;-36
2022/09/22 05:25:51;;;;;;;4.20;2.80;;;7.30;99.90;;;;;;5040903;28;20081;-37
2022/09/22 05:28:19;;;;;;;5.13;3.15;;;7.30;99.90;;;;;;5039444;28;20046;-36
2022/09/22 05:30:48;;;;;;;8.50;3.20;;;7.30;99.90;;;;;;5033025;28;20580;-38
2022/09/22 05:33:13;;;;;;;7.00;3.28;;;7.20;99.90;;;;;;5034516;28;20041;-37
2022/09/22 05:35:39;;;;;;;6.38;2.92;;;7.20;99.90;;;;;;5035646;28;20033;-38
2022/09/22 05:38:05;;;;;;;5.57;2.80;;;7.20;99.90;;;;;;5045849;28;20044;-36
2022/09/22 05:40:30;;;;;;;6.97;3.28;;;7.20;99.90;;;;;;5033129;28;20030;-38
2022/09/22 05:42:56;;;;;;;5.57;2.75;;;7.20;99.90;;;;;;5039373;28;20403;-37
2022/09/22 05:45:23;;;;;;;5.78;3.20;;;7.20;99.90;;;;;;5032805;28;20040;-39
2022/09/22 05:47:49;;;;;;;10.43;3.72;;;7.20;99.90;;;;;;5035988;28;20513;-36
2022/09/22 05:50:18;;;;;;;8.82;3.45;;;7.30;99.90;;;;;;5029470;28;20056;-37
2022/09/22 05:52:44;;;;;;;6.05;3.08;;;7.30;99.90;;;;;;5036451;28;20045;-34
2022/09/22 05:55:10;;;;;;;6.55;3.70;;;7.30;99.90;;;;;;5043791;28;20108;-34
2022/09/22 05:57:36;;;;;;;5.97;3.42;;;7.30;99.90;;;;;;5030488;28;20037;-34
2022/09/22 06:00:06;;;;;;;6.78;3.70;;;7.40;99.90;;;;;;5033052;28;20047;-35
2022/09/22 06:02:32;;;;;;;6.13;3.70;;;7.40;99.90;;;;;;5034302;28;20029;-35
2022/09/22 06:04:58;;;;;;;8.02;3.47;;;7.40;99.90;;;;;;5035394;28;20574;-35
2022/09/22 06:07:24;;;;;;;6.20;3.70;;;7.40;99.90;;;;;;5031605;28;20132;-35
2022/09/22 06:09:50;;;;;;;7.57;4.13;;;7.40;99.90;;;;;;5034944;28;20033;-35
2022/09/22 06:12:17;;;;;;;8.60;4.25;;;7.50;99.90;;;;;;5034784;28;20106;-35
2022/09/22 06:14:42;;;;;;;6.30;3.90;;;7.50;99.90;;;;;;5031457;28;20402;-35
2022/09/22 06:17:11;;;;;;;7.40;3.85;;;7.60;99.90;;;;;;5032382;28;20045;-36
2022/09/22 06:19:38;;;;;;;6.38;3.92;;;7.60;99.90;;;;;;5042557;28;20487;-35
2022/09/22 06:22:04;;;;;;;6.85;3.97;;;7.70;99.90;;;;;;5032529;28;20131;-35
2022/09/22 06:24:30;;;;;;;5.53;3.50;;;7.70;99.90;;;;;;5033703;28;20514;-34
2022/09/22 06:26:56;;;;;;;6.78;3.80;;;7.80;99.90;;;;;;5036277;28;20045;-35
2022/09/22 06:29:21;;;;;;;5.82;4.35;;;7.80;99.90;;;;;;5023636;28;20033;-35
2022/09/22 06:31:48;;;;;;;7.20;3.60;;;7.90;99.90;;;;;;5031925;28;20034;-35
2022/09/22 06:34:14;;;;;;;6.93;4.60;;;7.90;99.90;;;;;;5031617;28;20033;-34
2022/09/22 06:36:44;;;;;;;6.85;4.03;;;8.00;99.90;;;;;;5033394;28;21511;-35
2022/09/22 06:39:10;;;;;;;8.20;4.22;;;8.10;99.90;;;;;;5034724;28;20033;-34
2022/09/22 06:41:36;;;;;;;7.20;4.22;;;8.10;99.90;;;;;;5033984;28;20402;-35
2022/09/22 06:44:02;;;;;;;7.07;4.82;;;8.20;99.90;;;;;;5016008;28;20064;-35
2022/09/22 06:46:31;;;;;;;9.18;4.53;;;8.20;99.90;;;;;;5033209;28;20047;-35
2022/09/22 06:48:57;;;;;;;8.73;4.80;;;8.30;99.90;;;;;;5034988;28;20850;-36
2022/09/22 06:51:25;;;;;;;9.68;5.15;;;8.40;99.90;;;;;;5032818;28;20037;-35
2022/09/22 06:53:54;;;;;;;7.63;4.82;;;8.40;99.90;;;;;;5029102;28;20041;-35
2022/09/22 06:56:22;;;;;;;11.15;5.60;;;8.50;99.90;;;;;;5034096;28;20045;-36
2022/09/22 06:58:48;;;;;;;9.23;5.32;;;8.60;99.90;;;;;;5040656;28;20049;-37
2022/09/22 07:01:15;;;;;;;9.82;5.22;;;8.60;99.90;;;;;;5019080;28;20041;-37
2022/09/22 07:03:42;;;;;;;12.27;5.65;;;8.70;99.90;;;;;;5030782;28;20049;-37
2022/09/22 07:06:09;;;;;;;7.40;5.20;;;8.70;99.90;;;;;;5036881;28;20512;-36
2022/09/22 07:08:39;;;;;;;8.80;5.15;;;8.80;99.90;;;;;;5035944;28;20051;-34
2022/09/22 07:11:09;;;;;;;8.27;5.00;;;8.90;99.90;;;;;;5036192;28;20580;-35
2022/09/22 07:13:38;;;;;;;10.52;6.15;;;8.90;99.90;;;;;;5033581;28;20778;-35
2022/09/22 07:16:16;;;;;;;8.85;5.63;;;9.00;99.90;;;;;;5028881;28;20045;-34
2022/09/22 07:18:47;;;;;;;9.00;5.88;;;9.10;99.90;;;;;;5038685;28;20532;-36
2022/09/22 07:21:21;;;;;;;9.32;6.47;;;9.10;99.90;;;;;;5036794;28;20112;-35
2022/09/22 07:23:51;;;;;;;11.27;5.63;;;9.20;99.90;;;;;;5036726;28;20530;-34
2022/09/22 07:26:27;;;;;;;9.35;5.80;;;9.20;99.90;;;;;;5038243;28;20502;-35
2022/09/22 07:28:55;;;;;;;8.07;5.75;;;9.30;99.90;;;;;;5035046;28;20049;-35
2022/09/22 07:31:22;;;;;;;8.55;5.82;;;9.40;99.90;;;;;;5031599;28;20794;-35
2022/09/22 07:33:48;;;;;;;8.70;5.95;;;9.40;99.90;;;;;;5030563;28;20528;-36
2022/09/22 07:36:20;;;;;;;8.50;5.43;;;9.50;99.90;;;;;;5038686;28;20037;-36
2022/09/22 07:38:48;;;;;;;10.63;5.78;;;9.60;99.90;;;;;;5033780;28;20045;-35
2022/09/22 07:41:22;;;;;;;7.78;5.53;;;9.70;99.90;;;;;;5031523;28;20489;-36
2022/09/22 07:43:49;;;;;;;8.93;5.78;;;9.80;99.90;;;;;;5036279;28;20048;-39
2022/09/22 07:46:15;;;;;;;9.15;5.95;;;9.90;99.90;;;;;;5006424;28;20072;-37
2022/09/22 07:48:47;;;;;;;10.55;6.13;;;9.90;99.90;;;;;;5033820;28;20073;-35
2022/09/22 07:51:19;;;;;;;9.90;6.10;;;10.00;99.90;;;;;;5041127;28;20037;-36
2022/09/22 07:53:56;;;;;;;6.90;5.32;;;10.10;99.90;;;;;;5038307;28;20069;-36
2022/09/22 07:56:22;;;;;;;9.63;5.13;;;10.30;99.90;;;;;;5017642;28;20132;-34
2022/09/22 07:58:50;;;;;;;6.80;4.30;;;10.40;99.90;;;;;;5032926;28;20127;-36
2022/09/22 08:01:18;;;;;;;7.80;5.32;;;10.50;99.90;;;;;;5034784;28;20091;-34
2022/09/22 08:03:46;;;;;;;7.70;5.55;;;10.60;99.90;;;;;;5034548;28;20056;-35
2022/09/22 08:06:13;;;;;;;9.57;5.45;;;10.70;99.90;;;;;;5035410;28;20487;-35
2022/09/22 08:08:41;;;;;;;7.32;4.70;;;10.80;99.90;;;;;;5042536;28;20044;-35
2022/09/22 08:11:13;;;;;;;8.90;4.80;;;11.00;99.90;;;;;;5036782;28;20384;-35
2022/09/22 08:13:42;;;;;;;5.80;4.35;;;11.10;99.90;;;;;;5036981;28;20080;-34
2022/09/22 08:16:10;;;;;;;6.57;4.82;;;11.20;99.90;;;;;;5034343;28;20060;-34
2022/09/22 08:18:38;;;;;;;8.55;4.95;;;11.40;99.90;;;;;;5033518;28;20041;-34
2022/09/22 08:21:04;;;;;;;6.88;4.97;;;11.50;99.90;;;;;;5033768;28;20045;-35
2022/09/22 08:23:30;;;;;;;9.52;4.00;;;11.60;99.90;;;;;;5033573;28;20084;-35
2022/09/22 08:26:01;;;;;;;6.32;4.35;;;11.70;99.90;;;;;;5037330;28;20491;-35
2022/09/22 08:28:27;;;;;;;6.43;4.45;;;11.80;99.90;;;;;;5041268;28;20124;-34
2022/09/22 08:30:53;;;;;;;7.43;4.68;;;11.90;99.90;;;;;;5043522;28;20123;-35
2022/09/22 08:33:19;;;;;;;6.85;4.38;;;12.00;99.90;;;;;;5033480;28;20037;-36
2022/09/22 08:35:54;;;;;;;5.75;4.07;;;12.10;99.90;;;;;;5020327;28;20037;-37
2022/09/22 08:38:22;;;;;;;10.88;4.38;;;12.20;99.60;;;;;;5034767;28;20033;-36
2022/09/22 08:41:19;;;;;;;5.78;4.20;;;12.30;99.20;;;;;;5037191;28;20037;-37
2022/09/22 08:43:53;;;;;;;7.95;4.15;;;12.40;99.00;;;;;;5030249;28;20056;-37
2022/09/22 08:46:19;;;;;;;5.72;3.50;;;12.60;98.60;;;;;;5043432;28;20064;-37
2022/09/22 08:51:51;;;;;;;8.00;3.70;;;12.80;98.00;;;;;;5037631;28;20502;-37
2022/09/22 08:54:30;;;;;;;8.18;4.22;;;12.90;97.70;;;;;;5041406;28;20048;-37
2022/09/22 08:56:58;;;;;;;8.65;4.10;;;13.10;97.30;;;;;;5037151;28;20037;-38
2022/09/22 08:59:32;;;;;;;7.53;3.88;;;13.20;97.10;;;;;;5033365;28;20584;-36
2022/09/22 09:02:26;;;;;;;5.47;3.80;;;13.30;96.90;;;;;;5036680;28;20079;-36
2022/09/22 09:05:39;;;;;;;10.38;4.07;;;13.40;96.60;;;;;;5037043;28;20139;-36
2022/09/22 09:08:05;;;;;;;;;;;13.60;96.20;;;;;;5029446;28;20045;-36
2022/09/22 09:10:44;;;;;;;5.10;2.63;;;13.70;96.40;;;;;;5032806;28;19931;-36
2022/09/22 09:13:31;;;;;;;5.57;2.97;;;13.90;95.60;;;;;;5044362;28;20041;-38
2022/09/22 09:16:09;;;;;;;5.70;2.50;;;14.00;95.60;;;;;;5037215;28;20494;-36
2022/09/22 09:18:39;;;;;;;6.82;2.70;;;14.20;94.70;;;;;;5037078;28;20483;-38
2022/09/22 09:21:12;;;;;;;8.35;2.35;;;14.30;94.50;;;;;;5034024;28;20588;-37
2022/09/22 09:23:46;;;;;;;2.95;1.85;;;14.50;94.00;;;;;;5038726;28;20052;-37
2022/09/22 09:26:14;;;;;;;4.80;1.90;;;14.50;93.60;;;;;;5041004;28;20033;-37
2022/09/22 09:28:45;;;;;;;4.55;1.88;;;14.70;93.00;;;;;;5031753;28;20064;-37
2022/09/22 09:31:21;;;;;;;6.70;1.98;;;14.80;92.20;;;;;;5044727;28;20061;-37
2022/09/22 09:33:50;;;;;;;5.15;1.70;;;14.90;91.60;;;;;;5039688;28;20121;-37
2022/09/22 09:36:21;;;;;;;5.00;1.92;;;15.00;91.40;;;;;;5039521;28;20033;-37
2022/09/22 09:38:52;;;;;;;6.70;1.77;;;15.10;91.00;;;;;;5035554;28;20041;-37
2022/09/22 09:41:32;;;;;;;4.07;2.03;;;15.20;90.70;;;;;;5034945;28;20039;-36
2022/09/22 09:44:03;;;;;;;8.65;2.03;;;15.30;90.00;;;;;;5041858;28;20041;-38
2022/09/22 09:46:38;;;;;;;4.43;1.60;;;15.40;89.50;;;;;;5042835;28;20816;-37
2022/09/22 09:49:08;;;;;;;4.43;1.95;;;15.40;88.00;;;;;;5036689;28;20085;-37
2022/09/22 09:51:37;;;;;;;4.07;1.80;;;15.50;86.90;;;;;;5044231;28;20547;-36
2022/09/22 09:54:06;;;;;;;2.72;1.30;;;15.60;85.90;;;;;;5026974;28;20061;-35
2022/09/22 09:56:35;;;;;;;4.82;2.15;;;15.70;84.80;;;;;;5033710;28;20038;-36
2022/09/22 10:01:53;;;;;;;4.32;1.90;;;15.90;84.80;;;;;;5036872;28;20053;-34
2022/09/22 10:04:32;;;;;;;3.35;1.50;;;16.00;83.70;;;;;;5031765;28;20426;-34
2022/09/22 10:07:13;;;;;;;3.88;1.98;;;16.10;82.40;;;;;;5037831;28;20076;-35
2022/09/22 10:09:40;;;;;;;5.00;2.30;;;16.20;80.80;;;;;;5039927;28;20056;-35
2022/09/22 10:12:24;;;;;;;6.07;2.05;;;16.20;80.10;;;;;;5040691;28;20044;-36
2022/09/22 10:14:52;;;;;;;4.28;2.13;;;16.30;78.70;;;;;;5024598;28;20399;-37
2022/09/22 10:17:43;;;;;;;5.93;2.42;;;16.30;78.40;;;;;;5035579;28;20080;-37
2022/09/22 10:20:25;;;;;;;3.40;1.02;;;16.40;79.00;;;;;;5034992;28;20633;-35
2022/09/22 10:22:55;;;;;;;3.47;1.48;;;16.60;77.90;;;;;;5035488;28;20079;-34
2022/09/22 10:25:26;;;;;;;4.20;1.77;;;16.70;77.90;;;;;;5034505;28;20040;-33
2022/09/22 10:28:08;;;;;;;2.20;1.08;;;16.70;76.90;;;;;;5031345;28;20091;-34
2022/09/22 10:30:38;;;;;;;8.35;2.00;;;16.80;76.10;;;;;;5026852;28;20110;-34
2022/09/22 10:33:19;;;;;;;5.25;1.50;;;16.80;74.60;;;;;;5032312;28;20033;-34
2022/09/22 10:36:05;;;;;;;5.15;1.50;;;16.90;74.00;;;;;;5037764;28;20052;-35
2022/09/22 10:38:39;;;;;;;4.07;1.77;;;17.00;74.40;;;;;;5036594;28;20133;-35
2022/09/22 10:41:07;;;;;;;4.35;1.50;;;17.10;74.30;;;;;;5033545;28;20069;-34
2022/09/22 10:43:39;;;;;;;4.20;1.33;;;17.20;73.50;;;;;;5034062;28;20071;-35
2022/09/22 10:46:31;;;;;;;7.28;1.58;;;17.20;70.70;;;;;;5032957;28;20068;-35
2022/09/22 10:49:35;;;;;;;4.50;1.50;;;17.30;70.30;;;;;;5033246;28;20530;-36
2022/09/22 10:52:14;;;;;;;3.17;1.20;;;17.40;70.10;;;;;;4978826;28;20034;-35
2022/09/22 10:54:58;;;;;;;4.07;1.42;;;17.40;66.60;;;;;;5028639;28;20053;-36
2022/09/22 10:57:40;;;;;;;3.22;1.00;;;17.40;65.40;;;;;;5035669;28;20045;-35
2022/09/22 11:00:14;;;;;;;5.72;1.10;;;17.50;65.30;;;;;;5035123;28;20260;-37
2022/09/22 11:02:59;;;;;;;1.95;0.68;;;17.50;64.90;;;;;;5034948;28;20573;-36
2022/09/22 11:14:57;;;;;;;3.95;0.85;;;17.90;63.60;;;;;;4984997;28;20049;-34
2022/09/22 11:17:30;;;;;;;5.28;1.63;;;18.10;61.50;;;;;;4985089;28;20544;-36
2022/09/22 11:20:11;;;;;;;4.32;1.33;;;18.10;61.70;;;;;;5025263;28;21635;-42
2022/09/22 11:22:58;;;;;;;5.00;1.58;;;18.10;59.70;;;;;;5042987;28;20072;-36
2022/09/22 11:25:35;;;;;;;6.07;2.00;;;18.20;60.30;;;;;;5031159;28;20537;-36
2022/09/22 11:28:19;;;;;;;5.78;1.77;;;18.20;58.10;;;;;;5033841;28;20152;-37
2022/09/22 11:30:53;;;;;;;5.85;1.67;;;18.30;58.40;;;;;;5037003;28;20414;-36
2022/09/22 11:33:43;;;;;;;3.92;2.05;;;18.40;59.10;;;;;;5041087;28;20068;-36
2022/09/22 11:36:35;;;;;;;3.47;1.80;;;18.50;53.70;;;;;;5031254;28;20495;-37
2022/09/22 11:39:23;;;;;;;5.10;1.95;;;18.60;57.80;;;;;;5011485;28;20052;-35
2022/09/22 11:42:01;;;;;;;4.22;1.65;;;18.80;56.80;;;;;;5038255;28;20033;-35
2022/09/22 11:44:52;;;;;;;7.47;1.80;;;18.90;57.30;;;;;;5033520;28;20474;-37
2022/09/22 11:47:40;;;;;;;3.00;1.70;;;19.10;57.10;;;;;;5033308;28;20048;-37
2022/09/22 11:50:41;;;;;;;4.28;1.63;;;19.20;53.20;;;;;;5026903;28;20128;-38
2022/09/22 11:53:10;;;;;;;5.10;1.40;;;19.20;52.10;;;;;;5034647;28;20429;-37
2022/09/22 11:55:55;;;;;;;6.95;1.63;;;19.10;54.10;;;;;;5035379;28;20126;-37
2022/09/22 11:58:25;;;;;;;2.85;1.55;;;19.30;54.20;;;;;;5034128;28;20041;-37
2022/09/22 12:00:59;;;;;;;5.05;2.10;;;19.30;53.60;;;;;;5042011;28;20041;-36
2022/09/22 12:03:34;;;;;;;2.40;1.15;;;19.40;53.70;;;;;;5041276;28;20124;-36
2022/09/22 12:06:07;;;;;;;4.10;1.85;;;19.50;52.50;;;;;;5045940;28;20525;-37
2022/09/22 12:08:41;;;;;;;3.20;1.33;;;19.50;51.30;;;;;;5031954;28;20037;-37
2022/09/22 12:11:12;;;;;;;3.75;1.33;;;19.80;51.90;;;;;;5026997;28;20579;-36
2022/09/22 12:13:45;;;;;;;3.63;1.20;;;20.00;51.40;;;;;;5038935;28;20037;-34
2022/09/22 12:16:41;;;;;;;2.08;1.17;;;20.00;50.10;;;;;;5022670;28;20033;-34
2022/09/22 12:19:31;;;;;;;5.38;1.77;;;20.10;49.30;;;;;;5034314;28;20040;-35
2022/09/22 12:22:06;;;;;;;3.67;1.20;;;19.90;48.70;;;;;;5040083;28;20041;-34
2022/09/22 12:24:33;;;;;;;3.17;1.35;;;19.70;49.80;;;;;;5037112;28;20135;-34
2022/09/22 12:27:10;;;;;;;3.22;1.08;;;19.40;50.10;;;;;;5039158;28;20071;-36
2022/09/22 12:29:37;;;;;;;3.85;1.40;;;19.40;50.50;;;;;;5038419;28;20056;-35
2022/09/22 12:32:04;;;;;;;3.58;1.42;;;19.60;50.60;;;;;;5036516;28;20049;-35
2022/09/22 12:34:38;;;;;;;4.65;1.20;;;19.90;50.40;;;;;;5043167;28;20052;-35
2022/09/22 12:37:28;;;;;;;3.60;1.20;;;20.20;50.40;;;;;;5038424;28;20143;-35
2022/09/22 12:39:55;;;;;;;3.47;1.25;;;20.70;48.30;;;;;;5035322;28;20040;-34
2022/09/22 12:42:23;;;;;;;2.83;1.20;;;21.20;47.70;;;;;;5043436;28;20063;-35
2022/09/22 12:44:57;;;;;;;4.82;1.30;;;21.80;46.50;;;;;;5040852;28;20040;-35
2022/09/22 12:47:37;;;;;;;3.30;0.98;;;22.20;45.30;;;;;;5015293;28;20118;-36
2022/09/22 12:50:35;;;;;;;2.63;0.90;;;22.50;44.30;;;;;;5037473;28;20049;-34
2022/09/22 12:53:10;;;;;;;5.85;1.00;;;22.80;42.80;;;;;;5041203;28;20041;-35
2022/09/22 12:55:39;;;;;;;3.40;1.13;;;23.10;42.80;;;;;;5039038;28;20492;-35
2022/09/22 12:58:31;;;;;;;5.90;1.23;;;23.30;43.10;;;;;;5025446;28;20111;-34
2022/09/22 13:01:27;;;;;;;5.27;1.23;;;23.70;42.40;;;;;;5031322;28;20048;-35
2022/09/22 13:04:05;;;;;;;2.17;1.10;;;24.00;40.90;;;;;;5034844;28;20068;-36
2022/09/22 13:06:30;;;;;;;2.55;1.08;;;24.50;41.10;;;;;;5034285;28;20079;-35
2022/09/22 13:08:59;;;;;;;2.63;1.02;;;25.10;40.60;;;;;;5035405;28;20081;-34
2022/09/22 13:12:03;;;;;;;5.55;1.30;;;25.50;39.50;;;;;;5035366;28;20120;-37
2022/09/22 13:14:59;;;;;;;4.07;1.38;;;25.80;37.80;;;;;;5036874;28;20103;-36
2022/09/22 13:17:43;;;;;;;6.30;1.17;;;26.10;35.60;;;;;;5040670;28;20064;-35
2022/09/22 13:20:32;;;;;;;4.65;1.52;;;25.50;34.40;;;;;;5036287;28;20041;-37
2022/09/22 13:23:11;;;;;;;4.82;1.40;;;25.00;37.10;;;;;;5026562;28;20762;-35
2022/09/22 13:25:39;;;;;;;3.40;1.27;;;25.10;38.80;;;;;;5036740;28;20073;-36
2022/09/22 13:28:11;;;;;;;3.22;1.10;;;25.40;38.40;;;;;;5034522;28;20056;-35
2022/09/22 13:30:39;;;;;;;2.55;1.42;;;25.90;37.20;;;;;;5033843;28;20068;-39
2022/09/22 13:33:04;;;;;;;3.38;1.30;;;26.20;36.70;;;;;;5037430;28;20126;-36